Aviation Digital Data Service (ADDS)

Output produced by TAFs form (0142 UTC 20 January 2017)
found at http://aviationweather.gov/adds/tafs/
 
KPHX 200051Z 10005KT 10SM BKN060 OVC110 13/08 A2986 RMK AO2 RAB12E41 SLP107 P0000 T01330078
KPHX 192326Z 2000/2024 12006KT P6SM -SHRA SCT030 BKN070 
     TEMPO 2000/2004 SHRA BKN030 OVC050 
     FM200600 15007KT P6SM -SHRA FEW040 SCT070 BKN100 
     FM201200 12006KT P6SM SCT080 BKN120 
     FM202100 19006KT P6SM -SHRA BKN050 OVC100